Time;durP1;ratioP1;P1;durP2;ratioP2;P2;SDS_P1;SDS_P2;PMS_P1;PMS_P2;Temp;Humidity;BMP_temperature;BMP_pressure;BME280_temperature;BME280_humidity;BME280_pressure;Samples;Min_cycle;Max_cycle;Signal;HPM_P1;HPM_P2
2022/03/09 00:00:36;;;;;;;13.50;8.70;;;;;;;;;;5070508;28;20728;-59
2022/03/09 00:03:01;;;;;;;12.93;8.60;;;;;;;;;;5069525;28;20566;-60
2022/03/09 00:05:27;;;;;;;13.93;8.90;;;;;;;;;;5057210;28;20284;-59
2022/03/09 00:07:52;;;;;;;14.60;9.30;;;;;;;;;;5032609;28;20356;-59
2022/03/09 00:10:17;;;;;;;13.37;8.83;;;;;;;;;;5049373;28;20218;-59
2022/03/09 00:12:43;;;;;;;12.63;7.83;;;;;;;;;;5050595;28;20849;-60
2022/03/09 00:15:08;;;;;;;14.60;8.90;;;;;;;;;;5035563;28;20566;-60
2022/03/09 00:17:33;;;;;;;13.63;8.70;;;;;;;;;;5069436;28;20210;-59
2022/03/09 00:19:59;;;;;;;16.30;9.17;;;;;;;;;;5070187;28;20218;-59
2022/03/09 00:22:24;;;;;;;13.43;8.37;;;;;;;;;;5069802;28;20661;-60
2022/03/09 00:24:49;;;;;;;14.87;8.73;;;;;;;;;;5069553;28;20206;-59
2022/03/09 00:27:14;;;;;;;16.60;8.87;;;;;;;;;;5069834;28;20268;-59
2022/03/09 00:29:40;;;;;;;17.50;9.10;;;;;;;;;;5070209;28;20213;-59
2022/03/09 00:32:06;;;;;;;15.37;8.47;;;;;;;;;;5069085;28;20594;-60
2022/03/09 00:34:32;;;;;;;15.53;8.97;;;;;;;;;;5070006;28;20293;-59
2022/03/09 00:36:57;;;;;;;15.87;9.37;;;;;;;;;;5070160;28;20669;-59
2022/03/09 00:39:22;;;;;;;14.83;8.57;;;;;;;;;;5068777;28;20214;-59
2022/03/09 00:41:47;;;;;;;14.17;8.90;;;;;;;;;;5069902;28;20206;-59
2022/03/09 00:44:13;;;;;;;14.50;8.60;;;;;;;;;;5066657;28;20674;-60
2022/03/09 00:46:38;;;;;;;13.07;8.40;;;;;;;;;;5049257;28;20207;-59
2022/03/09 00:49:03;;;;;;;14.90;9.43;;;;;;;;;;5049226;28;20229;-59
2022/03/09 00:51:28;;;;;;;14.83;9.13;;;;;;;;;;5049423;28;20207;-59
2022/03/09 00:53:54;;;;;;;16.03;9.20;;;;;;;;;;5049543;28;20230;-59
2022/03/09 00:56:19;;;;;;;13.37;9.20;;;;;;;;;;5049291;28;20234;-60
2022/03/09 00:58:44;;;;;;;12.77;8.40;;;;;;;;;;5049135;28;20210;-59
2022/03/09 01:01:10;;;;;;;14.43;8.87;;;;;;;;;;5031748;28;20211;-59
2022/03/09 01:03:35;;;;;;;13.57;9.00;;;;;;;;;;5049621;28;20210;-59
2022/03/09 01:06:01;;;;;;;13.40;8.67;;;;;;;;;;5066423;28;20229;-60
2022/03/09 01:08:26;;;;;;;14.00;8.60;;;;;;;;;;5069730;28;20207;-59
2022/03/09 01:10:51;;;;;;;13.97;9.30;;;;;;;;;;5069852;28;20230;-59
2022/03/09 01:13:16;;;;;;;14.27;8.93;;;;;;;;;;5068385;28;20227;-60
2022/03/09 01:15:42;;;;;;;15.03;9.03;;;;;;;;;;5053304;28;20219;-59
2022/03/09 01:18:07;;;;;;;13.73;8.60;;;;;;;;;;5048992;28;20706;-59
2022/03/09 01:20:32;;;;;;;12.13;8.23;;;;;;;;;;5049004;28;20685;-59
2022/03/09 01:22:57;;;;;;;13.00;8.80;;;;;;;;;;5053092;28;20215;-59
2022/03/09 01:25:23;;;;;;;16.77;8.80;;;;;;;;;;5062531;28;20211;-59
2022/03/09 01:27:48;;;;;;;16.13;9.77;;;;;;;;;;5048138;28;20211;-59
2022/03/09 01:30:13;;;;;;;15.23;9.77;;;;;;;;;;5040501;28;20340;-59
2022/03/09 01:32:39;;;;;;;15.27;10.00;;;;;;;;;;5036550;28;20225;-59
2022/03/09 01:35:04;;;;;;;13.97;8.80;;;;;;;;;;5035771;28;20241;-59
2022/03/09 01:37:29;;;;;;;13.47;8.80;;;;;;;;;;5039534;28;20293;-59
2022/03/09 01:39:55;;;;;;;13.33;9.10;;;;;;;;;;5053382;28;20214;-59
2022/03/09 01:42:20;;;;;;;15.60;9.80;;;;;;;;;;5062258;28;20223;-59
2022/03/09 01:44:46;;;;;;;13.83;8.63;;;;;;;;;;5056512;28;20266;-59
2022/03/09 01:47:11;;;;;;;15.57;9.17;;;;;;;;;;5043640;28;20605;-59
2022/03/09 01:49:36;;;;;;;12.37;8.67;;;;;;;;;;5043369;28;20247;-59
2022/03/09 01:52:02;;;;;;;13.90;8.87;;;;;;;;;;5046731;28;20222;-60
2022/03/09 01:54:28;;;;;;;15.20;8.83;;;;;;;;;;5040021;28;20223;-59
2022/03/09 01:56:53;;;;;;;11.53;7.87;;;;;;;;;;5047549;28;20217;-59
2022/03/09 01:59:18;;;;;;;13.40;9.37;;;;;;;;;;5059443;28;20643;-59
2022/03/09 02:01:44;;;;;;;15.00;8.97;;;;;;;;;;5065193;28;20525;-60
2022/03/09 02:04:09;;;;;;;13.80;9.17;;;;;;;;;;5063828;28;20210;-59
2022/03/09 02:06:35;;;;;;;14.97;9.03;;;;;;;;;;5047584;28;20249;-59
2022/03/09 02:11:44;;;;;;;12.40;8.50;;;;;;;;;;5047134;28;20260;-59
2022/03/09 02:14:28;;;;;;;12.87;9.03;;;;;;;;;;5046592;28;20219;-59
2022/03/09 02:16:54;;;;;;;12.90;8.70;;;;;;;;;;5042029;28;20309;-59
2022/03/09 02:19:19;;;;;;;14.63;9.57;;;;;;;;;;5038738;28;20222;-59
2022/03/09 02:21:44;;;;;;;13.57;8.87;;;;;;;;;;5040144;28;20682;-59
2022/03/09 02:24:09;;;;;;;14.97;8.67;;;;;;;;;;5025642;28;20221;-59
2022/03/09 02:26:35;;;;;;;14.20;8.60;;;;;;;;;;5047283;28;20206;-59
2022/03/09 02:29:00;;;;;;;11.57;8.20;;;;;;;;;;5047217;28;20215;-59
2022/03/09 02:31:25;;;;;;;14.63;8.97;;;;;;;;;;5039654;28;20744;-59
2022/03/09 02:33:51;;;;;;;16.83;9.17;;;;;;;;;;5065969;28;20222;-59
2022/03/09 02:36:16;;;;;;;16.30;8.63;;;;;;;;;;5065887;28;20211;-59
2022/03/09 02:38:41;;;;;;;14.53;8.63;;;;;;;;;;5062172;28;20237;-59
2022/03/09 02:41:06;;;;;;;13.20;8.37;;;;;;;;;;5057944;28;20507;-59
2022/03/09 02:43:32;;;;;;;13.53;8.70;;;;;;;;;;5058089;28;20275;-59
2022/03/09 02:45:57;;;;;;;12.30;8.00;;;;;;;;;;5043928;28;20211;-59
2022/03/09 02:48:22;;;;;;;13.27;8.67;;;;;;;;;;5045806;28;20238;-59
2022/03/09 02:50:49;;;;;;;15.00;9.10;;;;;;;;;;5046640;28;20694;-59
2022/03/09 02:53:14;;;;;;;15.83;8.47;;;;;;;;;;5064819;28;20226;-59
2022/03/09 02:55:40;;;;;;;15.10;8.63;;;;;;;;;;5065856;28;20279;-59
2022/03/09 02:58:05;;;;;;;13.77;8.07;;;;;;;;;;5064284;28;20234;-59
2022/03/09 03:00:30;;;;;;;15.90;9.20;;;;;;;;;;5065559;28;20214;-59
2022/03/09 03:02:55;;;;;;;14.67;8.77;;;;;;;;;;5057004;28;20298;-59
2022/03/09 03:05:21;;;;;;;14.93;8.83;;;;;;;;;;5044859;28;20231;-59
2022/03/09 03:07:46;;;;;;;12.60;9.00;;;;;;;;;;5039436;28;20298;-59
2022/03/09 03:10:11;;;;;;;13.97;8.83;;;;;;;;;;5044646;28;20219;-59
2022/03/09 03:12:37;;;;;;;13.07;8.60;;;;;;;;;;5045244;28;20305;-59
2022/03/09 03:15:04;;;;;;;13.33;8.40;;;;;;;;;;5046021;28;20658;-59
2022/03/09 03:17:29;;;;;;;13.77;8.40;;;;;;;;;;5046000;28;20219;-59
2022/03/09 03:19:54;;;;;;;12.87;8.50;;;;;;;;;;5064214;28;20618;-59
2022/03/09 03:22:19;;;;;;;14.47;8.77;;;;;;;;;;5064928;28;20218;-59
2022/03/09 03:24:45;;;;;;;12.97;8.63;;;;;;;;;;5060837;28;20206;-59
2022/03/09 03:27:10;;;;;;;13.13;9.07;;;;;;;;;;5056094;28;20788;-59
2022/03/09 03:29:35;;;;;;;15.23;9.07;;;;;;;;;;5039481;28;20548;-59
2022/03/09 03:32:00;;;;;;;15.27;8.80;;;;;;;;;;5044736;28;20647;-60
2022/03/09 03:34:26;;;;;;;16.37;8.73;;;;;;;;;;5044940;28;20219;-59
2022/03/09 03:36:51;;;;;;;13.57;8.83;;;;;;;;;;5045475;28;20207;-59
2022/03/09 03:39:16;;;;;;;14.47;9.43;;;;;;;;;;5045181;28;20275;-59
2022/03/09 03:41:42;;;;;;;13.83;9.03;;;;;;;;;;5044461;28;20222;-59
2022/03/09 03:44:07;;;;;;;13.07;8.10;;;;;;;;;;5062018;28;20238;-59
2022/03/09 03:46:33;;;;;;;13.63;8.33;;;;;;;;;;5043558;28;20673;-59
2022/03/09 03:48:58;;;;;;;15.33;8.87;;;;;;;;;;5037516;28;20322;-59
2022/03/09 03:51:23;;;;;;;15.00;9.23;;;;;;;;;;5037595;28;20305;-59
2022/03/09 03:53:48;;;;;;;14.57;8.30;;;;;;;;;;5039135;28;20272;-59
2022/03/09 03:56:14;;;;;;;17.93;9.40;;;;;;;;;;5043943;28;20670;-59
2022/03/09 03:58:39;;;;;;;14.33;8.40;;;;;;;;;;5045507;28;20249;-59
2022/03/09 04:01:04;;;;;;;13.70;8.60;;;;;;;;;;5044616;28;20218;-59
2022/03/09 04:03:29;;;;;;;14.50;9.13;;;;;;;;;;5044474;28;20215;-59
2022/03/09 04:05:55;;;;;;;16.53;9.27;;;;;;;;;;5044897;28;20238;-59
2022/03/09 04:08:20;;;;;;;16.30;8.90;;;;;;;;;;5063367;28;20700;-59
2022/03/09 04:10:45;;;;;;;14.53;9.10;;;;;;;;;;5058614;28;20584;-59
2022/03/09 04:13:10;;;;;;;14.97;9.23;;;;;;;;;;5055492;28;20569;-59
2022/03/09 04:15:36;;;;;;;14.80;9.07;;;;;;;;;;5041119;28;20238;-59
2022/03/09 04:18:01;;;;;;;15.60;8.93;;;;;;;;;;5041775;28;20215;-59
2022/03/09 04:20:26;;;;;;;13.47;8.93;;;;;;;;;;5045339;28;20598;-59
2022/03/09 04:22:52;;;;;;;14.47;8.77;;;;;;;;;;5044251;28;20223;-59
2022/03/09 04:25:17;;;;;;;16.37;9.23;;;;;;;;;;5044550;28;20238;-59
2022/03/09 04:27:42;;;;;;;14.80;8.63;;;;;;;;;;5044693;28;20210;-60
2022/03/09 04:30:08;;;;;;;15.63;9.50;;;;;;;;;;5044972;28;20260;-60
2022/03/09 04:32:34;;;;;;;13.90;8.47;;;;;;;;;;5061129;28;20255;-60
2022/03/09 04:34:59;;;;;;;13.87;8.83;;;;;;;;;;5056354;28;20234;-60
2022/03/09 04:37:25;;;;;;;13.90;9.00;;;;;;;;;;5055157;28;20279;-60
2022/03/09 04:39:50;;;;;;;13.30;8.87;;;;;;;;;;5059070;28;20206;-60
2022/03/09 04:42:15;;;;;;;13.80;8.83;;;;;;;;;;5063531;28;20238;-60
2022/03/09 04:44:40;;;;;;;14.27;9.00;;;;;;;;;;5056776;28;20219;-60
2022/03/09 04:47:06;;;;;;;16.27;9.27;;;;;;;;;;5044033;28;20218;-59
2022/03/09 04:49:31;;;;;;;13.60;8.40;;;;;;;;;;5044359;28;20238;-60
2022/03/09 04:51:56;;;;;;;13.03;8.90;;;;;;;;;;5044185;28;20563;-60
2022/03/09 04:54:21;;;;;;;15.50;9.47;;;;;;;;;;5044251;28;20297;-60
2022/03/09 04:56:47;;;;;;;15.40;8.90;;;;;;;;;;5037453;28;20281;-60
2022/03/09 04:59:13;;;;;;;13.50;9.10;;;;;;;;;;5035438;28;20250;-60
2022/03/09 05:01:38;;;;;;;13.83;9.20;;;;;;;;;;5037196;28;20219;-60
2022/03/09 05:04:03;;;;;;;13.40;8.47;;;;;;;;;;5042771;28;20213;-60
2022/03/09 05:06:29;;;;;;;16.37;8.80;;;;;;;;;;5043781;28;20616;-60
2022/03/09 05:08:54;;;;;;;15.27;8.93;;;;;;;;;;5044141;28;20217;-60
2022/03/09 05:11:19;;;;;;;14.87;8.17;;;;;;;;;;5043824;28;20230;-60
2022/03/09 05:13:44;;;;;;;14.43;9.07;;;;;;;;;;5025370;28;20231;-60
2022/03/09 05:16:10;;;;;;;13.23;8.70;;;;;;;;;;5051446;28;20210;-60
2022/03/09 05:18:37;;;;;;;14.87;9.10;;;;;;;;;;5040375;28;20211;-60
2022/03/09 05:21:03;;;;;;;14.50;9.40;;;;;;;;;;5054880;28;20241;-60
2022/03/09 05:23:29;;;;;;;15.13;8.83;;;;;;;;;;5055969;28;20511;-60
2022/03/09 05:25:54;;;;;;;14.30;9.30;;;;;;;;;;5060825;28;20702;-60
2022/03/09 05:28:19;;;;;;;14.80;8.83;;;;;;;;;;5066837;28;20685;-59
2022/03/09 05:30:44;;;;;;;15.90;9.07;;;;;;;;;;5060914;28;20215;-60
2022/03/09 05:33:10;;;;;;;14.80;8.90;;;;;;;;;;5046359;28;20766;-60
2022/03/09 05:35:37;;;;;;;12.97;8.40;;;;;;;;;;5048099;28;20214;-60
2022/03/09 05:38:02;;;;;;;16.40;8.93;;;;;;;;;;5046999;28;20222;-60
2022/03/09 05:40:27;;;;;;;14.87;9.60;;;;;;;;;;5046334;28;20211;-59
2022/03/09 05:42:53;;;;;;;15.23;9.03;;;;;;;;;;5040195;28;20203;-60
2022/03/09 05:45:18;;;;;;;14.07;8.73;;;;;;;;;;5040006;28;20270;-60
2022/03/09 05:47:43;;;;;;;15.00;9.17;;;;;;;;;;5040933;28;20207;-60
2022/03/09 05:50:09;;;;;;;13.60;8.77;;;;;;;;;;5046766;28;20288;-60
2022/03/09 05:52:34;;;;;;;14.20;8.63;;;;;;;;;;5047471;28;20545;-60
2022/03/09 05:54:59;;;;;;;12.37;8.10;;;;;;;;;;5046494;28;20211;-60
2022/03/09 05:57:25;;;;;;;16.83;10.13;;;;;;;;;;5047146;28;20221;-60
2022/03/09 05:59:50;;;;;;;12.73;8.50;;;;;;;;;;5047486;28;20560;-60
2022/03/09 06:02:15;;;;;;;14.57;8.33;;;;;;;;;;5046494;28;20714;-60
2022/03/09 06:04:42;;;;;;;13.77;8.37;;;;;;;;;;5048971;28;20222;-59
2022/03/09 06:07:08;;;;;;;16.83;8.87;;;;;;;;;;5058288;28;20234;-59
2022/03/09 06:09:33;;;;;;;16.33;9.43;;;;;;;;;;5040306;28;20673;-59
2022/03/09 06:11:58;;;;;;;16.07;9.80;;;;;;;;;;5063006;28;20414;-59
2022/03/09 06:14:23;;;;;;;14.37;8.93;;;;;;;;;;5068129;28;20218;-59
2022/03/09 06:16:49;;;;;;;15.43;8.80;;;;;;;;;;5036181;28;20200;-61
2022/03/09 06:19:14;;;;;;;14.37;8.97;;;;;;;;;;5051726;28;20602;-58
2022/03/09 06:21:40;;;;;;;12.87;7.93;;;;;;;;;;5055131;28;20625;-59
2022/03/09 06:24:05;;;;;;;16.70;8.80;;;;;;;;;;5061115;28;20203;-59
2022/03/09 06:26:31;;;;;;;15.37;9.30;;;;;;;;;;5060767;28;20210;-59
2022/03/09 06:28:56;;;;;;;15.90;8.77;;;;;;;;;;5051595;28;20666;-59
2022/03/09 06:31:21;;;;;;;15.50;8.70;;;;;;;;;;5057462;28;20256;-60
2022/03/09 06:33:46;;;;;;;15.97;9.30;;;;;;;;;;5052155;28;20748;-59
2022/03/09 06:36:12;;;;;;;14.30;8.57;;;;;;;;;;5050644;28;20271;-60
2022/03/09 06:38:37;;;;;;;14.50;8.50;;;;;;;;;;5052078;28;20673;-59
2022/03/09 06:41:02;;;;;;;15.30;8.27;;;;;;;;;;5051625;28;20211;-59
2022/03/09 06:43:27;;;;;;;14.20;8.23;;;;;;;;;;5051256;28;20211;-59
2022/03/09 06:45:53;;;;;;;12.70;8.00;;;;;;;;;;5068752;28;20218;-59
2022/03/09 06:48:18;;;;;;;15.13;8.47;;;;;;;;;;5071385;28;20218;-58
2022/03/09 06:50:43;;;;;;;12.97;8.37;;;;;;;;;;5070839;28;20226;-59
2022/03/09 06:53:09;;;;;;;15.53;8.27;;;;;;;;;;5071251;28;20701;-58
2022/03/09 06:55:34;;;;;;;14.50;8.53;;;;;;;;;;5071838;28;20711;-58
2022/03/09 06:58:00;;;;;;;14.90;8.53;;;;;;;;;;5071143;28;20206;-58
2022/03/09 07:00:25;;;;;;;13.27;8.13;;;;;;;;;;5053195;28;20211;-67
2022/03/09 07:02:50;;;;;;;14.97;8.53;;;;;;;;;;5071673;28;20238;-59
2022/03/09 07:05:15;;;;;;;13.73;9.80;;;;;;;;;;5057294;28;20427;-59
2022/03/09 07:07:41;;;;;;;14.43;8.90;;;;;;;;;;5051788;28;20582;-60
2022/03/09 07:10:10;;;;;;;12.80;8.10;;;;;;;;;;5050947;28;20578;-61
2022/03/09 07:12:35;;;;;;;13.77;8.63;;;;;;;;;;5050940;28;20265;-60
2022/03/09 07:15:01;;;;;;;13.30;7.80;;;;;;;;;;5034723;28;20203;-61
2022/03/09 07:17:26;;;;;;;13.77;8.47;;;;;;;;;;5053139;28;20234;-61
2022/03/09 07:19:51;;;;;;;13.13;7.57;;;;;;;;;;5067443;28;20202;-60
2022/03/09 07:22:17;;;;;;;12.07;7.50;;;;;;;;;;5060420;28;20306;-61
2022/03/09 07:24:42;;;;;;;12.50;7.80;;;;;;;;;;5051497;28;20207;-60
2022/03/09 07:27:07;;;;;;;11.00;7.83;;;;;;;;;;5063782;28;20202;-61
2022/03/09 07:29:33;;;;;;;11.85;7.85;;;;;;;;;;5053014;28;20411;-63
2022/03/09 07:31:58;;;;;;;13.37;8.00;;;;;;;;;;5071149;28;20206;-60
2022/03/09 07:34:24;;;;;;;13.63;8.60;;;;;;;;;;5069661;28;20237;-61
2022/03/09 07:36:49;;;;;;;11.43;7.55;;;;;;;;;;5070875;28;20203;-61
2022/03/09 07:39:15;;;;;;;13.30;8.10;;;;;;;;;;5070477;28;20753;-60
2022/03/09 07:41:40;;;;;;;14.70;8.73;;;;;;;;;;5069636;28;20418;-59
2022/03/09 07:44:06;;;;;;;14.48;7.55;;;;;;;;;;5068190;28;20214;-59
2022/03/09 07:46:31;;;;;;;12.05;7.90;;;;;;;;;;5050357;28;20211;-60
2022/03/09 07:48:56;;;;;;;14.05;7.82;;;;;;;;;;5050104;28;20728;-59
2022/03/09 07:51:21;;;;;;;12.43;7.63;;;;;;;;;;5050245;28;20215;-59
2022/03/09 07:53:47;;;;;;;14.23;7.32;;;;;;;;;;5047333;28;20253;-60
2022/03/09 07:56:12;;;;;;;14.63;7.55;;;;;;;;;;5069787;28;20260;-60
2022/03/09 07:58:37;;;;;;;13.32;7.40;;;;;;;;;;5061737;28;20313;-61
2022/03/09 08:01:03;;;;;;;12.77;7.40;;;;;;;;;;5057793;28;20294;-61
2022/03/09 08:03:28;;;;;;;12.80;7.43;;;;;;;;;;5040048;28;20262;-61
2022/03/09 08:05:53;;;;;;;11.52;7.63;;;;;;;;;;5054662;28;20264;-60
2022/03/09 08:08:19;;;;;;;13.55;8.38;;;;;;;;;;5050454;28;20309;-61
2022/03/09 08:10:44;;;;;;;15.60;7.43;;;;;;;;;;5052486;28;20207;-61
2022/03/09 08:13:09;;;;;;;14.20;8.23;;;;;;;;;;5070054;28;20222;-61
2022/03/09 08:15:37;;;;;;;11.63;7.32;;;;;;;;;;5069702;28;20629;-61
2022/03/09 08:18:03;;;;;;;14.85;7.75;;;;;;;;;;5069892;28;20681;-61
2022/03/09 08:20:28;;;;;;;12.98;8.32;;;;;;;;;;5070247;28;20217;-61
2022/03/09 08:22:53;;;;;;;13.52;7.88;;;;;;;;;;5069299;28;20210;-61
2022/03/09 08:25:19;;;;;;;12.20;7.60;;;;;;;;;;5051875;28;20214;-61
2022/03/09 08:27:44;;;;;;;12.02;7.80;;;;;;;;;;5067835;28;20247;-61
2022/03/09 08:30:10;;;;;;;11.75;7.43;;;;;;;;;;5069070;28;20214;-61
2022/03/09 08:32:35;;;;;;;13.70;7.93;;;;;;;;;;5070092;28;20616;-61
2022/03/09 08:35:00;;;;;;;11.98;8.23;;;;;;;;;;5070128;28;20225;-61
2022/03/09 08:37:26;;;;;;;13.70;8.48;;;;;;;;;;5069014;28;20275;-61
2022/03/09 08:39:51;;;;;;;13.07;8.10;;;;;;;;;;5070212;28;20558;-61
2022/03/09 08:42:16;;;;;;;13.02;7.78;;;;;;;;;;5069754;28;20280;-61
2022/03/09 08:44:41;;;;;;;13.55;8.10;;;;;;;;;;5062438;28;20302;-61
2022/03/09 08:47:07;;;;;;;14.07;7.90;;;;;;;;;;5049714;28;20483;-61
2022/03/09 08:49:33;;;;;;;11.93;7.85;;;;;;;;;;5049706;28;20238;-61
2022/03/09 08:51:58;;;;;;;13.18;8.10;;;;;;;;;;5049285;28;20290;-61
2022/03/09 08:54:23;;;;;;;11.93;8.00;;;;;;;;;;5049366;28;20666;-61
2022/03/09 08:56:49;;;;;;;13.68;7.82;;;;;;;;;;5049311;28;20218;-61
2022/03/09 08:59:14;;;;;;;10.55;7.82;;;;;;;;;;5049474;28;20215;-61
2022/03/09 09:01:39;;;;;;;11.63;7.78;;;;;;;;;;5052964;28;20215;-61
2022/03/09 09:04:05;;;;;;;13.55;8.48;;;;;;;;;;5054860;28;20838;-61
2022/03/09 09:06:30;;;;;;;12.90;7.65;;;;;;;;;;5073947;28;20226;-61
2022/03/09 09:08:55;;;;;;;14.35;7.78;;;;;;;;;;5073715;28;20214;-61
2022/03/09 09:11:20;;;;;;;10.93;7.53;;;;;;;;;;5072769;28;20297;-61
2022/03/09 09:13:46;;;;;;;12.38;7.53;;;;;;;;;;5073659;28;20261;-61
2022/03/09 09:16:11;;;;;;;12.48;7.78;;;;;;;;;;5073437;28;20206;-61
2022/03/09 09:18:37;;;;;;;12.30;7.28;;;;;;;;;;5054892;28;20208;-61
2022/03/09 09:21:04;;;;;;;12.75;8.48;;;;;;;;;;5073087;28;20222;-61
2022/03/09 09:23:29;;;;;;;13.48;7.70;;;;;;;;;;5073442;28;20211;-61
2022/03/09 09:25:54;;;;;;;13.73;7.35;;;;;;;;;;5069364;28;20655;-61
2022/03/09 09:28:19;;;;;;;13.50;7.38;;;;;;;;;;5052933;28;20246;-61
2022/03/09 09:30:45;;;;;;;12.48;8.70;;;;;;;;;;5053797;28;20207;-61
2022/03/09 09:33:10;;;;;;;11.70;8.02;;;;;;;;;;5052182;28;20582;-61
2022/03/09 09:35:35;;;;;;;11.95;8.20;;;;;;;;;;5053468;28;20207;-61
2022/03/09 09:38:06;;;;;;;10.90;7.53;;;;;;;;;;5052846;28;20223;-61
2022/03/09 09:40:32;;;;;;;11.88;7.88;;;;;;;;;;5053741;28;20507;-61
2022/03/09 09:42:57;;;;;;;12.25;8.40;;;;;;;;;;5073190;28;20380;-60
2022/03/09 09:45:22;;;;;;;11.13;7.88;;;;;;;;;;5072621;28;20198;-61
2022/03/09 09:47:48;;;;;;;12.50;7.57;;;;;;;;;;5072369;28;20220;-61
2022/03/09 09:50:14;;;;;;;14.43;8.48;;;;;;;;;;5072476;28;20225;-61
2022/03/09 09:52:40;;;;;;;12.90;7.75;;;;;;;;;;5073002;28;20300;-61
2022/03/09 09:55:07;;;;;;;14.15;8.85;;;;;;;;;;5071968;28;20268;-61
2022/03/09 09:57:32;;;;;;;12.15;7.82;;;;;;;;;;5073177;28;20207;-61
2022/03/09 09:59:58;;;;;;;13.40;8.20;;;;;;;;;;5072270;28;20268;-61
2022/03/09 10:02:23;;;;;;;13.63;8.25;;;;;;;;;;5072406;28;20552;-60
2022/03/09 10:04:50;;;;;;;11.27;8.25;;;;;;;;;;5064724;28;20211;-61
2022/03/09 10:07:15;;;;;;;12.30;8.02;;;;;;;;;;5051537;28;20640;-60
2022/03/09 10:09:41;;;;;;;9.73;7.38;;;;;;;;;;5052683;28;20207;-61
2022/03/09 10:12:06;;;;;;;10.73;7.55;;;;;;;;;;5052074;28;20337;-61
2022/03/09 10:14:40;;;;;;;13.40;7.72;;;;;;;;;;5052013;28;20261;-61
2022/03/09 10:17:07;;;;;;;13.55;8.48;;;;;;;;;;5052357;28;20420;-61
2022/03/09 10:19:33;;;;;;;12.23;9.00;;;;;;;;;;5052357;28;20662;-60
2022/03/09 10:21:58;;;;;;;14.60;8.73;;;;;;;;;;5051886;28;20207;-60
2022/03/09 10:24:32;;;;;;;13.38;7.97;;;;;;;;;;5052090;28;20210;-60
2022/03/09 10:27:00;;;;;;;12.18;8.60;;;;;;;;;;5062723;28;20202;-60
2022/03/09 10:29:25;;;;;;;11.57;7.65;;;;;;;;;;5071292;28;20214;-60
2022/03/09 10:31:51;;;;;;;13.70;8.70;;;;;;;;;;5054576;28;20333;-60
2022/03/09 10:34:17;;;;;;;14.95;8.20;;;;;;;;;;5071680;28;20685;-60
2022/03/09 10:36:53;;;;;;;13.68;8.18;;;;;;;;;;5071542;28;20212;-60
2022/03/09 10:39:18;;;;;;;13.32;8.45;;;;;;;;;;5071807;28;20561;-60
2022/03/09 10:41:44;;;;;;;12.68;8.40;;;;;;;;;;5072294;28;20214;-60
2022/03/09 10:44:09;;;;;;;13.27;8.93;;;;;;;;;;5068477;28;20210;-61
2022/03/09 10:46:41;;;;;;;14.23;8.73;;;;;;;;;;5052273;28;20211;-60
2022/03/09 10:49:07;;;;;;;13.85;8.45;;;;;;;;;;5033452;28;20334;-60
2022/03/09 10:51:35;;;;;;;15.73;8.93;;;;;;;;;;5051546;28;20691;-60
2022/03/09 10:54:02;;;;;;;14.88;9.40;;;;;;;;;;5051800;28;20231;-60
2022/03/09 10:56:27;;;;;;;12.70;8.93;;;;;;;;;;5050921;28;20211;-60
2022/03/09 10:58:52;;;;;;;11.45;8.77;;;;;;;;;;5051839;28;20264;-60
2022/03/09 11:01:18;;;;;;;16.52;9.75;;;;;;;;;;5051431;28;20211;-60
2022/03/09 11:03:43;;;;;;;15.60;9.60;;;;;;;;;;5051284;28;20577;-60
2022/03/09 11:06:09;;;;;;;12.82;9.30;;;;;;;;;;5070289;28;20700;-60
2022/03/09 11:08:35;;;;;;;13.40;9.48;;;;;;;;;;5071610;28;20210;-60
2022/03/09 11:11:00;;;;;;;13.20;8.88;;;;;;;;;;5070864;28;20736;-60
2022/03/09 11:13:26;;;;;;;14.80;9.70;;;;;;;;;;5071253;28;20317;-60
2022/03/09 11:15:51;;;;;;;13.95;9.48;;;;;;;;;;5071481;28;20214;-60
2022/03/09 11:18:19;;;;;;;16.33;10.23;;;;;;;;;;5070442;28;20241;-60
2022/03/09 11:20:45;;;;;;;18.60;10.50;;;;;;;;;;5071374;28;20210;-60
2022/03/09 11:23:11;;;;;;;15.98;10.63;;;;;;;;;;5070074;28;20213;-60
2022/03/09 11:25:36;;;;;;;17.77;10.38;;;;;;;;;;5051450;28;20297;-60
2022/03/09 11:28:03;;;;;;;14.23;10.30;;;;;;;;;;5050935;28;20206;-61
2022/03/09 11:30:29;;;;;;;13.48;9.95;;;;;;;;;;5051245;28;20223;-60
2022/03/09 11:32:55;;;;;;;14.77;10.35;;;;;;;;;;5050372;28;20211;-60
2022/03/09 11:35:31;;;;;;;13.60;10.20;;;;;;;;;;5032916;28;20211;-60
2022/03/09 11:37:57;;;;;;;15.00;9.63;;;;;;;;;;5051134;28;20210;-60
2022/03/09 11:40:22;;;;;;;14.82;10.10;;;;;;;;;;5049925;28;20532;-60
2022/03/09 11:42:47;;;;;;;14.88;10.38;;;;;;;;;;5051237;28;20209;-60
2022/03/09 11:45:14;;;;;;;16.58;11.07;;;;;;;;;;5061791;28;20704;-60
2022/03/09 11:48:04;;;;;;;13.05;10.10;;;;;;;;;;5070348;28;20275;-60
2022/03/09 11:50:31;;;;;;;16.60;11.07;;;;;;;;;;5070445;28;20361;-60
2022/03/09 11:52:59;;;;;;;18.65;11.32;;;;;;;;;;5070196;28;20244;-60
2022/03/09 11:55:24;;;;;;;14.45;10.50;;;;;;;;;;5070221;28;20207;-60
2022/03/09 11:57:49;;;;;;;17.20;10.95;;;;;;;;;;5070831;28;20217;-60
2022/03/09 12:00:16;;;;;;;15.48;10.20;;;;;;;;;;5069446;28;20210;-60
2022/03/09 12:02:42;;;;;;;17.58;11.45;;;;;;;;;;5070716;28;20294;-60
2022/03/09 12:05:08;;;;;;;18.77;11.38;;;;;;;;;;5059372;28;20349;-60
2022/03/09 12:07:34;;;;;;;19.42;11.95;;;;;;;;;;5049805;28;20257;-60
2022/03/09 12:09:59;;;;;;;17.27;11.88;;;;;;;;;;5050623;28;20309;-60
2022/03/09 12:12:26;;;;;;;19.05;12.45;;;;;;;;;;5050056;28;20689;-60
2022/03/09 12:15:05;;;;;;;19.73;12.85;;;;;;;;;;5049763;28;20305;-60
2022/03/09 12:17:30;;;;;;;17.38;12.77;;;;;;;;;;5050196;28;20233;-60
2022/03/09 12:20:20;;;;;;;15.70;12.02;;;;;;;;;;5050550;28;20741;-60
2022/03/09 12:22:54;;;;;;;19.63;13.02;;;;;;;;;;5049129;28;20207;-60
2022/03/09 12:25:39;;;;;;;18.88;12.68;;;;;;;;;;5049854;28;20241;-60
2022/03/09 12:28:23;;;;;;;19.30;13.43;;;;;;;;;;5068418;28;20653;-60
2022/03/09 12:30:51;;;;;;;21.42;14.27;;;;;;;;;;5070368;28;20307;-59
2022/03/09 12:33:30;;;;;;;20.67;13.45;;;;;;;;;;5069659;28;20229;-60
2022/03/09 12:36:04;;;;;;;20.92;14.07;;;;;;;;;;5069637;28;20213;-60
2022/03/09 12:38:44;;;;;;;20.73;14.07;;;;;;;;;;5070021;28;20257;-60
2022/03/09 12:41:27;;;;;;;20.23;13.52;;;;;;;;;;5051897;28;20226;-60
2022/03/09 12:43:57;;;;;;;20.58;13.93;;;;;;;;;;5069069;28;20202;-60
2022/03/09 12:46:22;;;;;;;20.90;13.93;;;;;;;;;;5049689;28;20650;-60
2022/03/09 12:48:47;;;;;;;17.95;12.90;;;;;;;;;;5049042;28;20252;-60
2022/03/09 12:51:13;;;;;;;18.65;12.98;;;;;;;;;;5049744;28;20219;-60
2022/03/09 12:53:38;;;;;;;19.63;13.77;;;;;;;;;;5050023;28;20254;-60
2022/03/09 12:56:13;;;;;;;18.20;13.00;;;;;;;;;;5048781;28;20203;-60
2022/03/09 12:58:39;;;;;;;19.77;13.38;;;;;;;;;;5049917;28;20305;-59
2022/03/09 13:01:04;;;;;;;21.17;14.02;;;;;;;;;;5049619;28;20306;-60
2022/03/09 13:03:29;;;;;;;19.60;13.13;;;;;;;;;;5049134;28;20217;-60
2022/03/09 13:05:55;;;;;;;21.48;14.23;;;;;;;;;;5067418;28;20669;-60
2022/03/09 13:08:21;;;;;;;17.85;13.40;;;;;;;;;;5069273;28;20317;-60
2022/03/09 13:10:49;;;;;;;22.48;14.57;;;;;;;;;;5069167;28;20206;-60
2022/03/09 13:13:14;;;;;;;20.80;13.75;;;;;;;;;;5069316;28;20689;-60
2022/03/09 13:15:46;;;;;;;20.65;13.70;;;;;;;;;;5070182;28;20226;-60
2022/03/09 13:18:12;;;;;;;21.25;14.20;;;;;;;;;;5068668;28;20547;-60
2022/03/09 13:20:38;;;;;;;19.80;14.15;;;;;;;;;;5069995;28;20231;-60
2022/03/09 13:23:03;;;;;;;20.50;13.75;;;;;;;;;;5069380;28;20214;-60
2022/03/09 13:25:30;;;;;;;23.33;14.30;;;;;;;;;;5051008;28;20285;-60
2022/03/09 13:27:59;;;;;;;21.02;14.18;;;;;;;;;;5049858;28;20247;-60
2022/03/09 13:30:24;;;;;;;20.02;13.50;;;;;;;;;;5049285;28;20211;-60
2022/03/09 13:32:49;;;;;;;20.35;14.18;;;;;;;;;;5049088;28;20241;-60
2022/03/09 13:35:16;;;;;;;19.75;14.10;;;;;;;;;;5049195;28;20219;-60
2022/03/09 13:37:42;;;;;;;22.80;14.75;;;;;;;;;;5049791;28;20696;-60
2022/03/09 13:40:08;;;;;;;22.10;14.35;;;;;;;;;;5048501;28;20242;-60
2022/03/09 13:42:36;;;;;;;22.33;15.02;;;;;;;;;;5049656;28;20217;-60
2022/03/09 13:45:03;;;;;;;23.90;14.55;;;;;;;;;;5040787;28;20298;-59
2022/03/09 13:47:28;;;;;;;18.88;13.25;;;;;;;;;;5054017;28;20268;-60
2022/03/09 13:49:53;;;;;;;23.58;15.15;;;;;;;;;;5072973;28;20218;-60
2022/03/09 13:52:20;;;;;;;22.70;14.38;;;;;;;;;;5072072;28;20223;-60
2022/03/09 13:54:45;;;;;;;20.08;14.27;;;;;;;;;;5073057;28;20218;-59
2022/03/09 13:57:11;;;;;;;20.10;14.05;;;;;;;;;;5072548;28;20289;-60
2022/03/09 13:59:38;;;;;;;21.77;15.15;;;;;;;;;;5072273;28;20666;-60
2022/03/09 14:02:17;;;;;;;22.25;14.75;;;;;;;;;;5072791;28;20655;-60
2022/03/09 14:04:44;;;;;;;21.92;14.90;;;;;;;;;;5065493;28;20256;-60
2022/03/09 14:07:09;;;;;;;24.20;15.15;;;;;;;;;;5051791;28;20234;-60
2022/03/09 14:09:35;;;;;;;24.70;15.23;;;;;;;;;;5034796;28;20242;-60
2022/03/09 14:12:11;;;;;;;20.65;13.73;;;;;;;;;;5052915;28;20211;-60
2022/03/09 14:14:38;;;;;;;22.00;14.60;;;;;;;;;;5051562;28;20223;-60
2022/03/09 14:17:04;;;;;;;24.27;14.93;;;;;;;;;;5052359;28;20214;-60
2022/03/09 14:19:29;;;;;;;20.20;13.80;;;;;;;;;;5052479;28;20215;-59
2022/03/09 14:21:55;;;;;;;21.85;14.32;;;;;;;;;;5052014;28;20210;-60